Time;durP1;ratioP1;P1;durP2;ratioP2;P2;SDS_P1;SDS_P2;PMS_P1;PMS_P2;Temp;Humidity;BMP_temperature;BMP_pressure;BME280_temperature;BME280_humidity;BME280_pressure;Samples;Min_cycle;Max_cycle;Signal;HPM_P1;HPM_P2
2022/05/16 00:01:21;;;;;;;7.45;3.70;;;;;;;14.09;56.13;99867.47;10388518;28;20148;-60
2022/05/16 00:06:23;;;;;;;9.57;4.15;;;;;;;14.00;56.10;99865.56;10388950;28;20049;-60
2022/05/16 00:11:25;;;;;;;8.90;4.10;;;;;;;13.76;56.40;99862.94;10388140;28;20053;-60
2022/05/16 00:16:27;;;;;;;6.72;3.20;;;;;;;13.77;56.58;99854.97;10387846;28;20053;-60
2022/05/16 00:21:29;;;;;;;9.00;3.92;;;;;;;13.75;56.42;99845.50;10385039;28;20049;-60
2022/05/16 00:26:30;;;;;;;7.75;4.07;;;;;;;13.50;56.63;99845.63;10385691;28;20155;-60
2022/05/16 00:31:32;;;;;;;8.38;3.80;;;;;;;13.51;57.16;99844.69;10387321;28;20061;-60
2022/05/16 00:36:34;;;;;;;6.57;3.65;;;;;;;13.56;57.12;99843.38;10387105;28;20144;-60
2022/05/16 00:41:37;;;;;;;6.43;3.70;;;;;;;13.59;56.95;99837.06;10386562;28;20085;-60
2022/05/16 00:46:39;;;;;;;8.73;3.90;;;;;;;13.26;57.56;99835.09;10385447;28;20057;-60
2022/05/16 00:51:46;;;;;;;7.15;3.88;;;;;;;13.25;57.73;99837.81;10384990;28;20136;-61
2022/05/16 00:56:51;;;;;;;6.70;3.47;;;;;;;13.36;57.71;99830.00;10385396;28;20097;-60
2022/05/16 01:07:20;;;;;;;6.75;4.00;;;;;;;12.86;58.19;99826.56;10385848;28;20056;-60
2022/05/16 01:12:34;;;;;;;7.63;4.40;;;;;;;12.90;58.82;99827.22;10385997;28;20490;-60
2022/05/16 01:17:37;;;;;;;8.02;3.72;;;;;;;13.05;58.05;99820.03;10384742;28;20077;-61
2022/05/16 01:22:45;;;;;;;6.97;3.63;;;;;;;13.15;58.23;99823.69;10383950;28;20045;-60
2022/05/16 01:27:57;;;;;;;8.82;4.18;;;;;;;12.92;58.36;99820.88;10385224;28;20215;-60
2022/05/16 01:32:59;;;;;;;8.02;4.63;;;;;;;12.63;58.58;99819.50;10383368;28;20204;-60
2022/05/16 01:38:19;;;;;;;7.22;4.50;;;;;;;12.64;58.66;99815.91;10382736;28;20144;-60
2022/05/16 01:43:25;;;;;;;6.60;3.90;;;;;;;12.50;59.18;99812.56;10384119;28;20636;-61
2022/05/16 01:48:30;;;;;;;7.18;4.10;;;;;;;12.66;59.03;99807.97;10383995;28;20041;-61
2022/05/16 01:53:33;;;;;;;7.90;3.95;;;;;;;12.68;58.55;99801.63;10382778;28;20050;-60
2022/05/16 01:58:35;;;;;;;6.38;4.25;;;;;;;12.75;58.63;99804.66;10384861;28;20057;-60
2022/05/16 02:03:41;;;;;;;7.65;4.75;;;;;;;12.53;58.96;99796.63;10382707;28;20073;-61
2022/05/16 02:08:43;;;;;;;8.38;4.00;;;;;;;12.44;59.26;99802.50;10390340;28;20445;-60
2022/05/16 02:13:46;;;;;;;6.28;4.28;;;;;;;12.47;59.31;99794.44;10389320;28;20139;-60
2022/05/16 02:18:48;;;;;;;7.68;3.92;;;;;;;12.66;59.03;99793.03;10390754;28;20056;-60
2022/05/16 02:29:10;;;;;;;6.07;3.70;;;;;;;12.63;58.70;99782.75;10391051;28;20073;-60
2022/05/16 02:34:12;;;;;;;11.32;3.88;;;;;;;12.72;58.96;99791.78;10389708;28;20124;-60
2022/05/16 02:39:15;;;;;;;5.97;4.05;;;;;;;12.68;58.89;99796.38;10391102;28;20061;-61
2022/05/16 02:44:18;;;;;;;7.80;3.75;;;;;;;12.45;59.52;99796.31;10389656;28;20049;-60
2022/05/16 02:49:21;;;;;;;9.23;4.15;;;;;;;12.62;59.23;99778.44;10391658;28;20523;-60
2022/05/16 02:54:23;;;;;;;9.13;3.95;;;;;;;12.56;59.34;99780.66;10389322;28;20053;-60
2022/05/16 02:59:32;;;;;;;6.60;4.15;;;;;;;12.57;59.25;99780.56;10384982;28;20489;-60
2022/05/16 03:04:34;;;;;;;7.15;4.10;;;;;;;12.54;59.46;99782.56;10386531;28;20071;-61
2022/05/16 03:09:36;;;;;;;8.55;3.95;;;;;;;12.59;59.51;99783.09;10382658;28;20144;-60
2022/05/16 03:14:38;;;;;;;7.72;4.00;;;;;;;12.54;59.70;99782.56;10384274;28;20150;-60
2022/05/16 03:19:40;;;;;;;6.25;3.58;;;;;;;12.60;59.72;99788.22;10379132;28;20416;-60
2022/05/16 03:24:42;;;;;;;8.40;4.20;;;;;;;12.68;59.48;99780.63;10385976;28;20136;-60
2022/05/16 03:29:45;;;;;;;5.15;3.75;;;;;;;12.68;59.29;99780.63;10391013;28;20148;-60
2022/05/16 03:34:53;;;;;;;8.38;3.60;;;;;;;12.75;59.26;99781.06;10389494;28;20505;-61
2022/05/16 03:45:16;;;;;;;7.45;4.68;;;;;;;12.72;59.00;99768.97;10389117;28;20171;-60
2022/05/16 03:50:18;;;;;;;7.53;4.53;;;;;;;12.57;59.61;99759.59;10389251;28;20053;-60
2022/05/16 03:55:20;;;;;;;7.10;4.40;;;;;;;12.37;60.06;99746.19;10389649;28;20060;-60
2022/05/16 04:00:23;;;;;;;10.15;3.63;;;;;;;12.50;59.90;99745.22;10389287;28;20140;-60
2022/05/16 04:05:25;;;;;;;8.63;3.80;;;;;;;12.88;59.16;99745.94;10389351;28;20159;-60
2022/05/16 04:10:27;;;;;;;9.20;4.30;;;;;;;13.04;58.73;99752.72;10388873;28;20146;-60
2022/05/16 04:15:29;;;;;;;6.85;3.58;;;;;;;12.95;58.65;99756.84;10388440;28;20152;-60
2022/05/16 04:20:30;;;;;;;8.75;4.40;;;;;;;12.80;59.01;99761.41;10388646;28;20057;-61
2022/05/16 04:25:32;;;;;;;6.30;4.40;;;;;;;12.96;59.11;99769.84;10387173;28;20050;-60
2022/05/16 04:30:35;;;;;;;7.75;4.70;;;;;;;13.19;58.74;99760.31;10387965;28;20049;-60
2022/05/16 04:35:37;;;;;;;7.82;3.95;;;;;;;13.14;58.79;99772.94;10386067;28;20053;-61
2022/05/16 04:42:40;;;;;;;9.25;4.13;;;;;;;13.63;58.05;99762.31;10387878;28;20566;-60
2022/05/16 04:46:05;;;;;;;9.48;4.43;;;;;;;14.06;57.32;99755.50;10385014;28;20049;-60
2022/05/16 04:51:07;;;;;;;6.97;3.83;;;;;;;14.79;55.62;99763.75;10387542;28;20116;-60
2022/05/16 04:56:09;;;;;;;7.35;4.63;;;;;;;15.88;53.55;99767.91;10386160;28;20063;-61
2022/05/16 05:01:11;;;;;;;8.15;4.00;;;;;;;18.88;47.49;99761.59;10384540;28;20042;-60
2022/05/16 05:06:13;;;;;;;6.15;3.60;;;;;;;21.17;42.43;99753.09;10388285;28;20091;-61
2022/05/16 05:16:37;;;;;;;8.60;3.40;;;;;;;18.36;46.76;99751.69;10385579;28;20144;-61
2022/05/16 05:21:39;;;;;;;7.50;3.60;;;;;;;17.41;49.23;99764.06;10385515;28;20061;-62
2022/05/16 05:26:44;;;;;;;6.18;3.40;;;;;;;16.98;50.48;99764.41;10386132;28;20107;-60
2022/05/16 05:31:46;;;;;;;7.28;3.50;;;;;;;16.44;51.49;99768.41;10385482;28;20636;-61
2022/05/16 05:36:48;;;;;;;7.75;3.58;;;;;;;16.16;52.43;99778.63;10386333;28;20050;-60
2022/05/16 05:41:50;;;;;;;8.27;3.90;;;;;;;15.75;53.65;99791.84;10368517;28;20055;-61
2022/05/16 05:46:52;;;;;;;8.20;3.90;;;;;;;15.88;53.26;99807.47;10385526;28;20135;-60
2022/05/16 05:51:55;;;;;;;9.77;4.00;;;;;;;15.81;53.90;99807.16;10384128;28;20084;-60
2022/05/16 05:56:57;;;;;;;8.40;3.80;;;;;;;16.09;53.22;99795.13;10370493;28;20057;-60
2022/05/16 06:01:59;;;;;;;6.60;3.60;;;;;;;16.58;51.73;99805.00;10384724;28;20470;-60
2022/05/16 06:07:01;;;;;;;9.43;3.97;;;;;;;16.65;50.83;99800.88;10383389;28;20081;-61
2022/05/16 06:12:05;;;;;;;7.75;3.65;;;;;;;16.66;51.88;99805.16;10379145;28;20136;-61
2022/05/16 06:17:06;;;;;;;11.20;4.20;;;;;;;16.64;51.19;99820.31;10382773;28;20484;-60
2022/05/16 06:22:08;;;;;;;11.43;4.32;;;;;;;16.74;51.50;99810.63;10383679;28;20128;-61
2022/05/16 06:27:10;;;;;;;8.93;4.10;;;;;;;16.51;52.60;99819.72;10382289;28;20248;-60
2022/05/16 06:32:12;;;;;;;9.35;3.72;;;;;;;16.39;53.14;99816.25;10377238;28;20139;-60
2022/05/16 06:37:14;;;;;;;10.55;3.90;;;;;;;16.52;52.57;99813.44;10381727;28;20172;-61
2022/05/16 06:42:15;;;;;;;10.15;3.72;;;;;;;16.80;52.36;99816.22;10382236;28;20548;-61
2022/05/16 06:47:17;;;;;;;9.82;3.80;;;;;;;17.21;50.84;99819.66;10374368;28;20523;-62
2022/05/16 06:52:20;;;;;;;9.18;3.83;;;;;;;17.94;49.23;99838.53;10382213;28;20505;-61
2022/05/16 06:57:21;;;;;;;9.85;3.50;;;;;;;18.54;47.10;99832.03;10379992;28;20060;-62
2022/05/16 07:02:23;;;;;;;11.52;3.58;;;;;;;18.63;45.45;99839.94;10390683;28;20135;-61
2022/05/16 07:07:26;;;;;;;11.15;3.70;;;;;;;18.68;45.32;99836.88;10390137;28;20080;-60
2022/05/16 07:12:27;;;;;;;9.63;4.20;;;;;;;18.89;44.80;99832.16;10388593;28;20352;-60
2022/05/16 07:17:29;;;;;;;9.65;3.78;;;;;;;19.07;45.02;99835.75;10386032;28;20498;-66
2022/05/16 07:22:31;;;;;;;10.68;3.83;;;;;;;19.48;43.75;99843.13;10389054;28;20049;-66
2022/05/16 07:32:55;;;;;;;10.55;3.88;;;;;;;21.42;40.72;99853.28;10386168;28;20049;-66
2022/05/16 07:37:58;;;;;;;14.57;3.97;;;;;;;22.08;39.55;99839.94;10390098;28;20080;-66
2022/05/16 07:43:00;;;;;;;12.27;4.20;;;;;;;22.40;38.75;99839.88;10386890;28;20111;-66
2022/05/16 07:48:03;;;;;;;10.93;4.03;;;;;;;22.39;38.34;99848.88;10387881;28;20053;-67
2022/05/16 07:53:11;;;;;;;11.88;3.83;;;;;;;22.55;38.10;99842.69;10384439;28;20072;-67
2022/05/16 07:58:16;;;;;;;13.25;3.70;;;;;;;22.84;37.30;99850.16;10385942;28;20341;-67
2022/05/16 08:03:22;;;;;;;14.07;3.85;;;;;;;23.86;34.68;99840.91;10388586;28;20703;-67
2022/05/16 08:13:44;;;;;;;12.50;4.47;;;;;;;24.49;34.23;99847.75;10385694;28;20679;-67
2022/05/16 08:18:46;;;;;;;14.38;4.60;;;;;;;24.49;33.95;99840.53;10387010;28;20580;-67
2022/05/16 08:23:48;;;;;;;12.18;4.35;;;;;;;24.65;33.79;99832.38;10386528;28;20141;-66
2022/05/16 08:28:50;;;;;;;10.60;3.75;;;;;;;24.93;33.57;99829.88;10387058;28;20049;-67
2022/05/16 08:33:51;;;;;;;10.95;4.20;;;;;;;25.26;33.36;99833.81;10382907;28;20073;-67
2022/05/16 08:44:35;;;;;;;15.00;4.15;;;;;;;25.49;32.54;99834.50;10380728;28;20056;-68
2022/05/16 08:49:44;;;;;;;8.90;3.70;;;;;;;25.65;32.42;99825.41;10383649;28;20053;-67
2022/05/16 08:54:57;;;;;;;11.75;4.03;;;;;;;26.11;32.20;99829.38;10384925;28;20123;-67
2022/05/16 09:00:14;;;;;;;12.43;3.92;;;;;;;26.05;32.11;99815.91;10381865;28;20093;-67
2022/05/16 09:05:23;;;;;;;8.65;3.70;;;;;;;26.42;31.48;99813.75;10382518;28;20076;-67
2022/05/16 09:10:52;;;;;;;7.38;3.30;;;;;;;26.75;31.97;99802.41;10383004;28;20049;-67
2022/05/16 09:16:11;;;;;;;9.48;2.95;;;;;;;26.85;31.12;99805.53;10383127;28;20522;-67
2022/05/16 09:21:15;;;;;;;8.40;3.35;;;;;;;27.34;31.10;99798.94;10380510;28;20049;-67
2022/05/16 09:26:54;;;;;;;12.43;3.35;;;;;;;27.76;30.39;99797.00;10382449;28;20139;-67
2022/05/16 09:32:14;;;;;;;8.13;3.20;;;;;;;28.21;30.48;99788.94;10380003;28;20157;-66
2022/05/16 09:37:16;;;;;;;8.45;3.05;;;;;;;28.56;30.65;99796.75;10383381;28;20057;-67
2022/05/16 09:42:34;;;;;;;11.27;3.50;;;;;;;28.41;30.71;99785.41;10366236;28;20565;-67
2022/05/16 09:47:40;;;;;;;8.00;2.75;;;;;;;28.56;30.37;99786.00;10381777;28;20050;-67
2022/05/16 09:53:09;;;;;;;6.22;2.60;;;;;;;28.54;30.86;99778.16;10381021;28;20513;-67
2022/05/16 09:58:21;;;;;;;6.85;2.60;;;;;;;29.16;30.10;99763.19;10380948;28;20053;-67
2022/05/16 10:03:28;;;;;;;7.38;2.60;;;;;;;28.89;30.08;99766.03;10380328;28;20132;-66
2022/05/16 10:08:40;;;;;;;6.33;2.70;;;;;;;29.09;29.85;99776.72;10376292;28;20077;-67
2022/05/16 10:13:42;;;;;;;4.78;2.60;;;;;;;29.16;29.92;99779.34;10376968;28;20134;-67
2022/05/16 10:18:53;;;;;;;4.95;2.30;;;;;;;29.20;28.94;99775.19;10380750;28;20470;-67
2022/05/16 10:23:56;;;;;;;6.95;2.20;;;;;;;29.28;29.25;99783.03;10377615;28;20140;-67
2022/05/16 10:29:06;;;;;;;9.00;2.50;;;;;;;29.74;28.35;99784.41;10382304;28;20840;-67
2022/05/16 10:34:15;;;;;;;5.47;2.33;;;;;;;29.73;27.87;99781.94;10380948;28;20553;-67
2022/05/16 10:39:23;;;;;;;4.93;2.30;;;;;;;29.41;28.42;99783.00;10381176;28;20612;-67
2022/05/16 10:44:31;;;;;;;5.87;2.60;;;;;;;29.32;28.83;99776.16;10378593;28;20516;-67
2022/05/16 10:49:55;;;;;;;10.45;2.08;;;;;;;29.24;28.05;99768.34;10373630;28;20509;-67
2022/05/16 10:54:58;;;;;;;6.10;2.22;;;;;;;29.18;29.06;99769.19;10380137;28;20864;-66
2022/05/16 11:00:10;;;;;;;5.38;2.10;;;;;;;28.91;28.70;99773.91;10376048;28;20115;-67
2022/05/16 11:05:31;;;;;;;5.63;2.38;;;;;;;28.98;28.42;99763.91;10380593;28;20050;-67
2022/05/16 11:10:53;;;;;;;6.28;2.00;;;;;;;28.93;28.40;99767.25;10377388;28;20055;-67
2022/05/16 11:16:17;;;;;;;4.38;2.17;;;;;;;29.14;28.09;99763.41;10378836;28;20060;-67
2022/05/16 11:21:52;;;;;;;6.72;2.10;;;;;;;29.20;29.13;99750.94;10378343;28;20079;-67
2022/05/16 11:27:02;;;;;;;5.65;2.33;;;;;;;29.46;28.79;99751.66;10379850;28;20421;-67
2022/05/16 11:32:29;;;;;;;7.85;2.58;;;;;;;29.29;29.49;99758.59;10377518;28;20053;-67
2022/05/16 11:37:49;;;;;;;5.18;2.17;;;;;;;28.75;30.52;99748.25;10377913;28;20065;-67
2022/05/16 11:43:19;;;;;;;8.65;2.30;;;;;;;28.39;30.88;99753.34;10379829;28;20614;-67
2022/05/16 11:48:58;;;;;;;6.63;2.17;;;;;;;28.32;31.28;99749.00;10387661;28;20128;-67
2022/05/16 11:54:25;;;;;;;5.15;2.35;;;;;;;28.65;30.77;99750.56;10385725;28;20485;-66
2022/05/16 12:04:50;;;;;;;8.25;2.60;;;;;;;29.08;30.65;99748.97;10385108;28;20289;-67
2022/05/16 12:09:58;;;;;;;6.57;2.70;;;;;;;29.01;30.82;99744.66;10386536;28;20588;-67
2022/05/16 12:15:18;;;;;;;5.65;2.42;;;;;;;29.02;30.88;99735.53;10384002;28;20119;-66
2022/05/16 12:20:42;;;;;;;7.00;2.60;;;;;;;28.91;31.63;99737.03;10366595;28;20473;-66
2022/05/16 12:25:44;;;;;;;7.05;2.70;;;;;;;29.39;31.42;99725.81;10370445;28;20974;-66
2022/05/16 12:30:57;;;;;;;4.57;2.30;;;;;;;30.03;31.16;99728.22;10381659;28;20409;-66
2022/05/16 12:35:59;;;;;;;8.07;3.00;;;;;;;28.96;33.64;99726.44;10383559;28;20065;-66
2022/05/16 12:41:38;;;;;;;12.02;2.92;;;;;;;28.04;36.31;99736.59;10383141;28;20112;-66
2022/05/16 12:46:59;;;;;;;9.52;3.60;;;;;;;27.76;37.24;99722.56;10381136;28;20455;-66
2022/05/16 12:52:49;;;;;;;12.55;3.20;;;;;;;27.23;37.40;99726.19;10383668;28;20808;-66
2022/05/16 12:58:02;;;;;;;10.07;2.90;;;;;;;27.53;35.40;99735.53;10374690;28;20144;-66
2022/05/16 13:03:23;;;;;;;18.40;3.33;;;;;;;28.03;33.93;99726.06;10375895;28;20099;-67
2022/05/16 13:08:37;;;;;;;16.45;3.58;;;;;;;28.51;32.56;99729.28;10381359;28;20521;-66
2022/05/16 13:14:11;;;;;;;15.15;3.20;;;;;;;28.87;32.55;99743.03;10378973;28;20391;-66
2022/05/16 13:19:16;;;;;;;8.32;3.17;;;;;;;29.23;32.01;99766.69;10378931;28;20531;-66
2022/05/16 13:24:19;;;;;;;10.65;3.00;;;;;;;29.34;31.41;99766.00;10380187;28;20057;-65
2022/05/16 13:29:23;;;;;;;11.85;2.75;;;;;;;28.99;31.42;99774.47;10381172;28;20194;-66
2022/05/16 13:34:42;;;;;;;14.15;3.20;;;;;;;28.98;31.67;99799.75;10381688;28;20038;-66
2022/05/16 13:39:47;;;;;;;7.82;2.35;;;;;;;27.79;32.74;99824.28;10381247;28;20092;-66
2022/05/16 13:44:54;;;;;;;7.75;2.65;;;;;;;26.74;34.94;99831.09;10376143;28;20045;-66
2022/05/16 13:49:56;;;;;;;11.38;2.55;;;;;;;25.88;36.13;99858.19;10381778;28;20088;-66
2022/05/16 13:55:00;;;;;;;8.20;2.60;;;;;;;25.12;37.52;99858.75;10370492;28;20144;-66
2022/05/16 14:00:10;;;;;;;9.15;2.58;;;;;;;24.50;39.04;99882.31;10371038;28;20124;-66
2022/05/16 14:05:35;;;;;;;8.23;2.30;;;;;;;23.65;40.95;99896.00;10375848;28;20095;-67
2022/05/16 14:10:38;;;;;;;8.85;2.60;;;;;;;23.25;41.88;99904.97;10377634;28;20138;-67
2022/05/16 14:15:46;;;;;;;7.60;2.60;;;;;;;23.36;42.64;99912.63;10379835;28;20468;-67
2022/05/16 14:20:48;;;;;;;9.85;2.67;;;;;;;23.49;43.45;99932.44;10378834;28;20132;-67
2022/05/16 14:25:51;;;;;;;8.77;2.55;;;;;;;23.43;43.99;99956.34;10378536;28;20524;-66
2022/05/16 14:31:00;;;;;;;7.90;2.70;;;;;;;23.40;44.60;99960.19;10374209;28;20053;-66
2022/05/16 14:36:05;;;;;;;8.68;2.33;;;;;;;23.29;43.82;99968.53;10377244;28;20520;-66
2022/05/16 14:41:18;;;;;;;7.30;2.60;;;;;;;22.94;44.63;99981.47;10378844;28;20167;-66
2022/05/16 14:51:43;;;;;;;8.00;2.88;;;;;;;22.36;49.18;99997.59;10379674;28;20342;-65
2022/05/16 14:56:45;;;;;;;10.65;3.33;;;;;;;21.48;52.52;100019.44;10377893;28;20160;-67
2022/05/16 15:07:09;;;;;;;9.85;3.90;;;;;;;20.71;56.05;100014.94;10375358;28;20220;-67
2022/05/16 15:12:12;;;;;;;11.18;3.25;;;;;;;20.34;56.29;100000.94;10378839;28;20399;-67
2022/05/16 15:17:14;;;;;;;9.07;3.10;;;;;;;20.19;56.59;100000.66;10378394;28;20081;-67
2022/05/16 15:22:17;;;;;;;11.63;4.35;;;;;;;20.03;57.90;99995.16;10383380;28;20632;-67
2022/05/16 15:27:19;;;;;;;8.80;3.30;;;;;;;19.97;57.37;99992.31;10384289;28;20056;-67
2022/05/16 15:32:21;;;;;;;12.23;3.90;;;;;;;19.78;58.04;100003.00;10383884;28;20085;-67
2022/05/16 15:37:23;;;;;;;12.10;3.75;;;;;;;19.66;57.38;100001.53;10381114;28;20413;-67
2022/05/16 15:42:27;;;;;;;10.00;3.70;;;;;;;19.53;58.12;99999.22;10374636;28;21042;-67
2022/05/16 15:47:32;;;;;;;10.70;3.38;;;;;;;19.50;58.20;100006.63;10374572;28;20053;-67
2022/05/16 15:52:35;;;;;;;9.40;3.55;;;;;;;19.18;59.14;100021.13;10386567;28;20490;-67
2022/05/16 15:57:37;;;;;;;7.18;3.03;;;;;;;19.18;58.25;100018.47;10387291;28;20089;-67
2022/05/16 16:02:44;;;;;;;10.07;3.30;;;;;;;19.33;58.41;100027.66;10385700;28;20259;-66
2022/05/16 16:13:06;;;;;;;;;;;;;;;18.71;61.82;100042.38;10386001;28;20119;-67
2022/05/16 16:18:12;;;;;;;11.68;3.72;;;;;;;18.95;60.68;100021.56;10384397;28;19928;-67
2022/05/16 16:23:17;;;;;;;14.40;4.68;;;;;;;19.17;60.34;100019.47;10380480;28;20356;-67
2022/05/16 16:28:19;;;;;;;11.20;4.55;;;;;;;19.34;60.21;100025.81;10386292;28;20076;-66
2022/05/16 16:33:24;;;;;;;11.52;4.53;;;;;;;19.35;60.27;100025.69;10383785;28;20053;-67
2022/05/16 16:38:26;;;;;;;14.57;4.43;;;;;;;19.19;60.67;100028.09;10381099;28;20093;-66
2022/05/16 16:43:34;;;;;;;13.95;5.60;;;;;;;19.09;61.43;100024.66;10380397;28;20132;-67
2022/05/16 16:48:36;;;;;;;11.85;4.22;;;;;;;18.86;61.67;100027.72;10379506;28;20741;-67
2022/05/16 16:58:58;;;;;;;14.60;5.00;;;;;;;18.73;62.81;100033.31;10375986;28;20498;-68
2022/05/16 17:04:00;;;;;;;13.57;4.28;;;;;;;18.74;62.86;100035.00;10384357;28;20045;-67
2022/05/16 17:09:02;;;;;;;8.77;4.65;;;;;;;18.80;62.98;100039.72;10376778;28;20188;-67
2022/05/16 17:14:06;;;;;;;10.73;4.97;;;;;;;18.72;63.10;100047.53;10382840;28;20052;-67
2022/05/16 17:19:09;;;;;;;11.25;4.95;;;;;;;18.63;63.28;100057.16;10383440;28;20135;-67
2022/05/16 17:24:10;;;;;;;10.15;4.53;;;;;;;18.75;62.71;100065.78;10381098;28;20152;-67
2022/05/16 17:29:12;;;;;;;12.05;5.60;;;;;;;18.82;63.35;100066.91;10378411;28;20231;-67
2022/05/16 17:34:14;;;;;;;14.35;5.13;;;;;;;18.89;63.01;100081.25;10384195;28;20053;-67
2022/05/16 17:39:18;;;;;;;13.52;5.30;;;;;;;18.97;62.71;100083.22;10382061;28;20391;-67
2022/05/16 17:44:21;;;;;;;10.43;5.00;;;;;;;18.98;63.05;100087.53;10378483;28;20152;-67
2022/05/16 17:49:22;;;;;;;10.80;5.38;;;;;;;18.90;63.24;100082.94;10381820;28;20045;-67
2022/05/16 17:54:27;;;;;;;12.32;5.55;;;;;;;18.80;63.96;100092.72;10382716;28;20139;-67
2022/05/16 17:59:29;;;;;;;12.18;5.20;;;;;;;18.63;64.36;100093.41;10380205;28;20303;-67
2022/05/16 18:04:31;;;;;;;12.57;5.80;;;;;;;18.69;64.34;100099.97;10380920;28;20156;-67
2022/05/16 18:09:33;;;;;;;8.75;4.60;;;;;;;18.72;64.22;100108.47;10376210;28;20069;-66
2022/05/16 18:14:35;;;;;;;9.82;5.68;;;;;;;18.79;63.97;100112.22;10375991;28;20532;-68
2022/05/16 18:19:37;;;;;;;10.75;5.10;;;;;;;18.79;64.00;100120.19;10379763;28;20164;-66
2022/05/16 18:24:39;;;;;;;10.85;5.07;;;;;;;18.83;63.70;100129.53;10378925;28;20085;-67
2022/05/16 18:29:41;;;;;;;8.13;4.85;;;;;;;18.90;64.05;100132.47;10377913;28;20373;-68
2022/05/16 18:34:42;;;;;;;9.48;5.63;;;;;;;18.98;63.46;100144.03;10379215;28;20085;-67
2022/05/16 18:39:44;;;;;;;10.57;5.70;;;;;;;19.10;63.36;100142.09;10376993;28;20111;-66
2022/05/16 18:55:27;;;;;;;11.33;5.60;;;;;;;18.88;63.21;100156.47;10386749;28;19960;-67
2022/05/16 19:00:33;;;;;;;13.20;6.20;;;;;;;18.77;63.52;100167.19;10388379;28;20607;-67
2022/05/16 19:05:35;;;;;;;10.23;5.75;;;;;;;18.63;63.38;100173.72;10388709;28;20069;-67
2022/05/16 19:10:38;;;;;;;10.77;5.60;;;;;;;18.46;64.16;100178.84;10384396;28;20045;-66
2022/05/16 19:15:45;;;;;;;12.02;6.05;;;;;;;18.39;63.97;100180.34;10388933;28;20075;-64
2022/05/16 19:20:49;;;;;;;10.38;6.50;;;;;;;18.30;64.68;100194.41;10388216;28;20053;-66
2022/05/16 19:25:51;;;;;;;14.82;6.88;;;;;;;18.19;64.37;100197.13;10385808;28;20046;-66
2022/05/16 19:36:19;;;;;;;12.57;6.55;;;;;;;17.82;64.58;100210.88;10385748;28;20557;-66
2022/05/16 19:41:21;;;;;;;13.73;7.22;;;;;;;17.69;65.14;100210.22;10389271;28;20399;-66
2022/05/16 19:46:23;;;;;;;14.25;7.35;;;;;;;17.64;65.38;100217.72;10389038;28;20053;-66
2022/05/16 19:51:25;;;;;;;12.65;6.65;;;;;;;17.63;65.27;100228.41;10390726;28;20169;-66
2022/05/16 19:56:27;;;;;;;14.75;7.97;;;;;;;17.58;65.31;100230.63;10390342;28;20132;-66
2022/05/16 20:01:29;;;;;;;14.90;7.40;;;;;;;17.51;65.22;100243.50;10386563;28;20873;-66
2022/05/16 20:06:33;;;;;;;13.32;8.52;;;;;;;17.35;65.20;100248.41;10387774;28;20155;-66
2022/05/16 20:11:41;;;;;;;11.52;8.80;;;;;;;17.17;65.61;100247.25;10388408;28;20513;-66
2022/05/16 20:16:43;;;;;;;15.02;7.78;;;;;;;17.07;65.78;100254.25;10388840;28;20045;-66
2022/05/16 20:27:05;;;;;;;;;;;;;;;16.67;67.01;100264.53;10388214;28;20056;-66
2022/05/16 20:32:07;;;;;;;15.80;9.20;;;;;;;16.92;65.65;100266.06;10387018;28;19960;-66
2022/05/16 20:37:11;;;;;;;12.43;8.48;;;;;;;16.86;65.95;100256.81;10388129;28;20053;-66
2022/05/16 20:42:13;;;;;;;19.23;11.18;;;;;;;16.76;66.07;100255.03;10385162;28;20099;-66
2022/05/16 20:47:15;;;;;;;15.77;8.57;;;;;;;16.63;66.15;100265.72;10388193;28;20765;-66
2022/05/16 20:52:18;;;;;;;14.20;8.70;;;;;;;16.53;66.30;100272.72;10387316;28;20137;-66
2022/05/16 20:57:21;;;;;;;17.75;11.48;;;;;;;16.26;66.38;100268.72;10387094;28;20257;-66
2022/05/16 21:02:23;;;;;;;18.27;10.00;;;;;;;16.07;66.12;100278.06;10384896;28;20084;-66
2022/05/16 21:07:25;;;;;;;13.25;8.60;;;;;;;15.97;66.44;100277.09;10387041;28;20065;-66
2022/05/16 21:12:28;;;;;;;14.38;9.15;;;;;;;15.97;66.67;100279.75;10386286;28;20512;-66
2022/05/16 21:17:33;;;;;;;14.02;8.77;;;;;;;16.04;66.85;100273.00;10385946;28;20046;-66
2022/05/16 21:22:35;;;;;;;10.73;7.20;;;;;;;16.09;66.75;100278.78;10384179;28;20307;-66
2022/05/16 21:27:39;;;;;;;12.82;7.88;;;;;;;16.01;67.11;100280.34;10386219;28;20045;-66
2022/05/16 21:32:41;;;;;;;13.52;7.70;;;;;;;16.03;66.82;100283.69;10384938;28;20132;-64
2022/05/16 21:37:44;;;;;;;12.75;9.40;;;;;;;15.90;67.01;100283.78;10385515;28;20059;-64
2022/05/16 21:42:46;;;;;;;17.63;11.75;;;;;;;15.65;67.09;100285.78;10385689;28;20053;-64
2022/05/16 21:48:09;;;;;;;15.80;10.20;;;;;;;15.56;67.34;100289.94;10385435;28;20045;-64
2022/05/16 21:53:11;;;;;;;14.95;9.88;;;;;;;15.52;67.49;100291.09;10384437;28;20627;-65
2022/05/16 21:58:15;;;;;;;16.10;11.20;;;;;;;15.36;68.04;100291.38;10383811;28;20416;-64
2022/05/16 22:03:16;;;;;;;18.30;10.18;;;;;;;15.37;68.34;100298.31;10384287;28;20094;-64
2022/05/16 22:08:19;;;;;;;11.30;9.05;;;;;;;15.36;68.22;100295.81;10384424;28;20133;-64
2022/05/16 22:13:23;;;;;;;12.45;9.85;;;;;;;15.35;68.38;100302.00;10385054;28;20271;-64
2022/05/16 22:18:27;;;;;;;15.05;8.95;;;;;;;15.35;68.34;100309.91;10382485;28;20522;-65
2022/05/16 22:23:28;;;;;;;11.82;10.00;;;;;;;15.35;68.38;100307.28;10384223;28;20500;-64
2022/05/16 22:28:30;;;;;;;12.85;9.30;;;;;;;15.26;68.63;100302.69;10381692;28;20073;-64
2022/05/16 22:33:32;;;;;;;12.90;9.95;;;;;;;15.27;68.53;100307.00;10382550;28;20057;-64
2022/05/16 22:38:34;;;;;;;11.82;9.20;;;;;;;15.24;68.46;100308.09;10383236;28;20207;-64
2022/05/16 22:43:38;;;;;;;13.13;10.85;;;;;;;15.25;68.68;100307.13;10383821;28;20053;-64
2022/05/16 22:48:40;;;;;;;12.40;10.80;;;;;;;15.22;68.74;100309.16;10382780;28;20104;-66
2022/05/16 22:53:42;;;;;;;15.90;10.80;;;;;;;15.25;68.50;100312.41;10384080;28;20057;-65
2022/05/16 22:58:44;;;;;;;14.88;11.13;;;;;;;15.24;68.42;100309.88;10381551;28;20132;-67
2022/05/16 23:03:45;;;;;;;23.77;10.35;;;;;;;15.14;68.76;100309.69;10383057;28;20578;-65
2022/05/16 23:08:47;;;;;;;68.03;13.52;;;;;;;15.15;69.04;100318.44;10382901;28;20140;-64
2022/05/16 23:13:49;;;;;;;61.28;12.05;;;;;;;15.08;69.28;100323.31;10381746;28;20115;-64
2022/05/16 23:18:51;;;;;;;171.02;26.83;;;;;;;15.13;68.99;100318.56;10380985;28;20057;-64
2022/05/16 23:23:53;;;;;;;132.73;15.57;;;;;;;15.09;69.28;100317.09;10382509;28;20053;-64
2022/05/16 23:28:55;;;;;;;121.82;15.35;;;;;;;15.05;69.61;100313.00;10381945;28;20446;-64
2022/05/16 23:33:56;;;;;;;174.20;16.55;;;;;;;15.03;69.44;100324.59;10382841;28;20469;-64
2022/05/16 23:38:59;;;;;;;81.47;14.18;;;;;;;15.03;69.63;100324.59;10381180;28;20525;-64
2022/05/16 23:44:01;;;;;;;73.57;13.73;;;;;;;15.08;69.37;100325.13;10391136;28;20116;-64
2022/05/16 23:49:02;;;;;;;100.32;12.55;;;;;;;15.14;69.16;100322.84;10390210;28;20059;-64
2022/05/16 23:54:04;;;;;;;61.92;12.63;;;;;;;15.25;69.20;100320.31;10389542;28;20058;-64
2022/05/16 23:59:06;;;;;;;125.35;18.77;;;;;;;15.20;69.01;100322.44;10389869;28;20184;-65
